createdAt,value
2018-05-09T00:01:07.821Z,3.97
2018-05-09T00:04:11.105Z,4.13
2018-05-09T00:07:14.495Z,4.10
2018-05-09T00:10:17.864Z,4.27
2018-05-09T00:13:21.116Z,6.17
2018-05-09T00:16:24.282Z,5.70
2018-05-09T00:19:27.491Z,4.77
2018-05-09T00:22:30.794Z,5.17
2018-05-09T00:25:34.175Z,5.80
2018-05-09T00:28:37.676Z,6.30
2018-05-09T00:31:40.980Z,3.67
2018-05-09T00:34:44.395Z,7.00
2018-05-09T00:37:47.791Z,5.57
2018-05-09T00:40:52.095Z,3.27
2018-05-09T00:43:55.604Z,9.20
2018-05-09T00:46:59.013Z,6.27
2018-05-09T00:50:02.347Z,7.03
2018-05-09T00:53:06.372Z,6.20
2018-05-09T00:56:09.781Z,6.53
2018-05-09T00:59:14.103Z,5.90
2018-05-09T01:02:17.443Z,7.13
2018-05-09T01:05:20.849Z,6.60
2018-05-09T01:08:24.265Z,4.60
2018-05-09T01:11:27.679Z,5.47
2018-05-09T01:14:30.872Z,4.30
2018-05-09T01:17:34.113Z,4.20
2018-05-09T01:20:38.969Z,8.27
2018-05-09T01:23:42.315Z,4.30
2018-05-09T01:26:45.723Z,4.37
2018-05-09T01:29:49.052Z,6.83
2018-05-09T01:32:52.368Z,4.63
2018-05-09T01:35:55.711Z,5.77
2018-05-09T01:39:00.142Z,6.73
2018-05-09T01:42:03.445Z,6.00
2018-05-09T01:45:07.587Z,3.33
2018-05-09T01:48:10.834Z,4.17
2018-05-09T01:51:14.158Z,4.30
2018-05-09T01:54:17.468Z,6.50
2018-05-09T01:57:20.908Z,8.10
2018-05-09T02:00:24.276Z,5.63
2018-05-09T02:03:27.704Z,7.40
2018-05-09T02:06:32.089Z,6.30
2018-05-09T02:09:36.495Z,5.27
2018-05-09T02:12:39.841Z,7.80
2018-05-09T02:15:43.289Z,3.53
2018-05-09T02:18:46.672Z,5.93
2018-05-09T02:21:50.099Z,4.43
2018-05-09T02:24:53.468Z,7.47
2018-05-09T02:27:56.840Z,6.53
2018-05-09T02:31:01.288Z,8.17
2018-05-09T02:34:06.462Z,9.00
2018-05-09T02:37:10.783Z,5.37
2018-05-09T02:40:14.360Z,5.27
2018-05-09T02:43:18.519Z,7.27
2018-05-09T02:46:21.926Z,7.10
2018-05-09T02:49:25.337Z,8.40
2018-05-09T02:52:28.715Z,6.73
2018-05-09T02:55:32.109Z,6.70
2018-05-09T02:58:36.123Z,5.53
2018-05-09T03:01:39.485Z,4.10
2018-05-09T03:04:42.743Z,6.90
2018-05-09T03:07:45.964Z,9.57
2018-05-09T03:10:50.397Z,4.60
2018-05-09T03:13:53.753Z,7.17
2018-05-09T03:16:57.161Z,8.80
2018-05-09T03:20:01.569Z,6.23
2018-05-09T03:23:04.964Z,5.50
2018-05-09T03:26:08.656Z,4.70
2018-05-09T03:29:12.001Z,5.10
2018-05-09T03:32:15.263Z,5.90
2018-05-09T03:35:18.660Z,6.57
2018-05-09T03:38:22.995Z,7.00
2018-05-09T03:41:26.592Z,7.33
2018-05-09T03:44:29.978Z,4.20
2018-05-09T03:47:33.485Z,6.20
2018-05-09T03:50:37.918Z,5.53
2018-05-09T03:53:41.422Z,9.27
2018-05-09T03:56:44.924Z,8.77
2018-05-09T03:59:48.228Z,7.17
2018-05-09T04:04:09.236Z,8.43
2018-05-09T04:08:28.735Z,4.67
2018-05-09T04:11:32.223Z,8.57
2018-05-09T04:14:36.132Z,7.03
2018-05-09T04:17:39.440Z,7.20
2018-05-09T04:20:44.924Z,6.87
2018-05-09T04:23:48.265Z,5.43
2018-05-09T04:26:51.656Z,7.30
2018-05-09T04:29:55.071Z,7.93
2018-05-09T04:32:58.439Z,5.37
2018-05-09T04:36:01.674Z,5.20
2018-05-09T04:39:05.282Z,4.77
2018-05-09T04:42:08.666Z,7.10
2018-05-09T04:45:11.991Z,8.37
2018-05-09T04:48:15.454Z,6.23
2018-05-09T04:51:18.824Z,5.73
2018-05-09T04:54:22.057Z,5.37
2018-05-09T04:57:25.321Z,5.80
2018-05-09T05:00:28.686Z,6.83
2018-05-09T05:03:31.995Z,7.20
2018-05-09T05:06:37.519Z,12.00
2018-05-09T05:09:40.830Z,15.90
2018-05-09T05:12:44.094Z,15.13
2018-05-09T05:15:47.455Z,10.73
2018-05-09T05:18:50.827Z,18.20
2018-05-09T05:21:54.888Z,14.60
2018-05-09T05:24:58.151Z,21.90
2018-05-09T05:28:01.623Z,21.90
2018-05-09T05:31:04.940Z,25.20
2018-05-09T05:34:08.386Z,16.90
2018-05-09T05:37:11.755Z,24.37
2018-05-09T05:40:15.036Z,18.90
2018-05-09T05:43:19.349Z,21.47
2018-05-09T05:46:23.652Z,31.43
2018-05-09T05:49:27.049Z,14.80
2018-05-09T05:52:30.289Z,14.07
2018-05-09T05:55:33.665Z,17.20
2018-05-09T05:58:36.912Z,12.00
2018-05-09T06:01:40.185Z,11.90
2018-05-09T06:04:43.569Z,13.03
2018-05-09T06:07:46.877Z,6.67
2018-05-09T06:10:50.280Z,12.20
2018-05-09T06:13:54.708Z,10.77
2018-05-09T06:16:58.028Z,9.00
2018-05-09T06:20:01.311Z,7.93
2018-05-09T06:23:04.727Z,8.03
2018-05-09T06:26:08.091Z,7.97
2018-05-09T06:29:11.449Z,12.57
2018-05-09T06:32:14.773Z,12.03
2018-05-09T06:35:17.986Z,9.67
2018-05-09T06:38:22.292Z,10.87
2018-05-09T06:41:25.917Z,9.27
2018-05-09T06:44:29.184Z,8.83
2018-05-09T06:47:32.452Z,10.13
2018-05-09T06:50:35.780Z,9.23
2018-05-09T06:53:39.091Z,7.17
2018-05-09T06:56:42.401Z,9.47
2018-05-09T06:59:45.813Z,10.10
2018-05-09T07:02:49.187Z,10.13
2018-05-09T07:05:52.531Z,7.00
2018-05-09T07:08:56.598Z,7.77
2018-05-09T07:11:59.844Z,23.93
2018-05-09T07:15:03.210Z,6.77
2018-05-09T07:18:06.591Z,8.57
2018-05-09T07:21:09.895Z,8.30
2018-05-09T07:24:13.203Z,6.87
2018-05-09T07:27:16.589Z,5.57
2018-05-09T07:30:19.933Z,6.10
2018-05-09T07:33:23.761Z,7.70
2018-05-09T07:36:26.909Z,9.43
2018-05-09T07:39:30.209Z,9.20
2018-05-09T07:42:33.480Z,8.07
2018-05-09T07:45:36.903Z,5.60
2018-05-09T07:48:40.127Z,8.80
2018-05-09T07:51:43.391Z,6.87
2018-05-09T07:54:46.798Z,8.07
2018-05-09T07:57:50.197Z,6.03
2018-05-09T08:00:54.491Z,7.47
2018-05-09T08:03:57.776Z,6.37
2018-05-09T08:07:01.009Z,8.87
2018-05-09T08:10:04.296Z,5.07
2018-05-09T08:13:07.650Z,7.90
2018-05-09T08:16:10.997Z,9.70
2018-05-09T08:19:14.156Z,7.33
2018-05-09T08:22:17.542Z,6.83
2018-05-09T08:25:21.253Z,9.97
2018-05-09T08:28:25.202Z,6.97
2018-05-09T08:31:28.597Z,5.07
2018-05-09T08:34:31.956Z,4.77
2018-05-09T08:37:35.216Z,5.17
2018-05-09T08:40:38.590Z,12.17
2018-05-09T08:43:42.063Z,8.20
2018-05-09T08:46:45.177Z,7.03
2018-05-09T08:49:48.607Z,5.10
2018-05-09T08:52:51.999Z,6.90
2018-05-09T08:55:56.171Z,7.80
2018-05-09T08:59:00.012Z,7.20
2018-05-09T09:02:03.261Z,9.27
2018-05-09T09:05:06.565Z,11.63
2018-05-09T09:08:09.900Z,6.50
2018-05-09T09:11:13.216Z,7.13
2018-05-09T09:14:17.519Z,8.33
2018-05-09T09:17:20.960Z,11.33
2018-05-09T09:20:26.278Z,6.87
2018-05-09T09:23:29.680Z,8.10
2018-05-09T09:26:33.063Z,6.53
2018-05-09T09:29:36.377Z,7.33
2018-05-09T09:32:40.628Z,7.63
2018-05-09T09:35:44.002Z,7.07
2018-05-09T09:38:47.179Z,5.87
2018-05-09T09:41:51.552Z,6.57
2018-05-09T09:44:55.616Z,6.83
2018-05-09T09:47:58.854Z,8.07
2018-05-09T09:51:02.105Z,10.17
2018-05-09T09:54:05.551Z,8.30
2018-05-09T09:57:08.868Z,6.33
2018-05-09T10:00:12.216Z,7.00
2018-05-09T10:03:15.597Z,6.03
2018-05-09T10:06:18.788Z,7.93
2018-05-09T10:09:22.055Z,7.23
2018-05-09T10:12:26.664Z,7.07
2018-05-09T10:15:29.998Z,7.60
2018-05-09T10:18:33.270Z,9.10
2018-05-09T10:21:36.512Z,7.43
2018-05-09T10:24:39.803Z,7.40
2018-05-09T10:27:43.228Z,6.77
2018-05-09T10:30:46.611Z,9.00
2018-05-09T10:33:49.922Z,9.47
2018-05-09T10:36:53.348Z,5.63
2018-05-09T10:39:57.949Z,7.40
2018-05-09T10:43:01.228Z,7.00
2018-05-09T10:46:04.662Z,6.93
2018-05-09T10:49:08.048Z,7.17
2018-05-09T10:52:11.760Z,11.60
2018-05-09T10:55:15.037Z,9.70
2018-05-09T10:58:18.365Z,7.07
2018-05-09T11:01:21.764Z,8.50
2018-05-09T11:04:25.297Z,11.40
2018-05-09T11:07:28.682Z,8.20
2018-05-09T11:10:31.985Z,8.03
2018-05-09T11:13:35.382Z,8.07
2018-05-09T11:16:39.831Z,5.93
2018-05-09T11:19:43.166Z,11.33
2018-05-09T11:22:46.618Z,5.13
2018-05-09T11:25:50.952Z,7.53
2018-05-09T11:28:54.280Z,6.67
2018-05-09T11:32:03.034Z,6.17
2018-05-09T11:35:06.442Z,9.67
2018-05-09T11:38:09.713Z,6.70
2018-05-09T11:41:13.013Z,8.53
2018-05-09T11:44:16.304Z,9.10
2018-05-09T11:47:19.796Z,9.37
2018-05-09T11:50:23.124Z,10.07
2018-05-09T11:53:27.260Z,7.10
2018-05-09T11:56:30.574Z,5.33
2018-05-09T11:59:34.911Z,6.23
2018-05-09T12:02:38.557Z,8.90
2018-05-09T12:05:41.832Z,7.73
2018-05-09T12:08:45.117Z,8.40
2018-05-09T12:11:48.511Z,8.87
2018-05-09T12:14:51.716Z,6.70
2018-05-09T12:17:55.819Z,7.40
2018-05-09T12:20:59.047Z,6.47
2018-05-09T12:24:02.341Z,7.63
2018-05-09T12:27:05.597Z,9.70
2018-05-09T12:30:08.853Z,8.17
2018-05-09T12:33:12.300Z,6.80
2018-05-09T12:36:15.667Z,7.57
2018-05-09T12:39:21.179Z,11.70
2018-05-09T12:42:24.527Z,6.67
2018-05-09T12:45:28.548Z,9.47
2018-05-09T12:48:31.999Z,9.80
2018-05-09T12:51:35.264Z,7.87
2018-05-09T12:54:38.634Z,6.87
2018-05-09T12:57:42.692Z,8.43
2018-05-09T13:00:46.097Z,7.27
2018-05-09T13:03:49.426Z,8.30
2018-05-09T13:06:52.699Z,7.30
2018-05-09T13:09:56.702Z,9.07
2018-05-09T13:13:00.043Z,7.47
2018-05-09T13:16:03.432Z,6.07
2018-05-09T13:19:06.827Z,6.80
2018-05-09T13:22:10.225Z,7.37
2018-05-09T13:25:13.719Z,7.77
2018-05-09T13:28:17.111Z,8.37
2018-05-09T13:31:20.504Z,7.43
2018-05-09T13:34:23.876Z,5.70
2018-05-09T13:37:28.017Z,6.87
2018-05-09T13:40:31.369Z,7.00
2018-05-09T13:43:34.771Z,4.83
2018-05-09T13:46:38.123Z,9.47
2018-05-09T13:49:41.644Z,3.80
2018-05-09T13:52:44.955Z,4.23
2018-05-09T13:55:48.206Z,7.33
2018-05-09T13:58:51.636Z,7.37
2018-05-09T14:01:54.960Z,3.50
2018-05-09T14:04:58.368Z,3.97
2018-05-09T14:08:01.681Z,5.60
2018-05-09T14:11:05.032Z,3.80
2018-05-09T14:14:08.356Z,6.83
2018-05-09T14:17:11.688Z,6.27
2018-05-09T14:20:15.031Z,5.80
2018-05-09T14:23:18.334Z,6.23
2018-05-09T14:26:21.786Z,6.40
2018-05-09T14:29:25.108Z,6.77
2018-05-09T14:32:29.523Z,5.20
2018-05-09T14:35:32.898Z,4.37
2018-05-09T14:38:36.231Z,4.07
2018-05-09T14:41:39.423Z,4.73
2018-05-09T14:44:42.665Z,6.47
2018-05-09T14:47:46.067Z,5.13
2018-05-09T14:50:49.445Z,5.57
2018-05-09T14:53:52.842Z,4.60
2018-05-09T14:56:57.266Z,7.23
2018-05-09T15:00:00.592Z,7.23
2018-05-09T15:03:03.976Z,4.97
2018-05-09T15:06:07.353Z,3.97
2018-05-09T15:09:10.789Z,4.13
2018-05-09T15:12:14.096Z,4.40
2018-05-09T15:15:17.431Z,6.10
2018-05-09T15:18:20.955Z,7.43
2018-05-09T15:21:25.360Z,5.93
2018-05-09T15:24:29.551Z,8.83
2018-05-09T15:27:32.835Z,6.60
2018-05-09T15:30:36.013Z,4.63
2018-05-09T15:33:39.350Z,8.47
2018-05-09T15:36:42.631Z,6.63
2018-05-09T15:39:45.966Z,7.27
2018-05-09T15:42:49.284Z,5.57
2018-05-09T15:45:52.699Z,5.37
2018-05-09T15:48:55.947Z,6.37
2018-05-09T15:52:00.747Z,4.13
2018-05-09T15:55:03.957Z,3.47
2018-05-09T15:58:07.333Z,4.77
2018-05-09T16:01:10.679Z,7.57
2018-05-09T16:04:13.997Z,5.43
2018-05-09T16:07:17.432Z,8.13
2018-05-09T16:10:20.950Z,7.40
2018-05-09T16:13:24.316Z,5.10
2018-05-09T16:16:28.365Z,4.40
2018-05-09T16:19:31.699Z,5.23
2018-05-09T16:22:35.033Z,6.13
2018-05-09T16:25:38.296Z,8.10
2018-05-09T16:28:41.619Z,5.00
2018-05-09T16:31:45.034Z,4.07
2018-05-09T16:34:48.364Z,4.90
2018-05-09T16:37:51.703Z,4.27
2018-05-09T16:40:55.101Z,5.50
2018-05-09T16:43:59.885Z,5.33
2018-05-09T16:47:03.243Z,4.23
2018-05-09T16:50:06.605Z,4.37
2018-05-09T16:53:10.011Z,3.83
2018-05-09T16:56:13.203Z,5.10
2018-05-09T16:59:16.511Z,4.87
2018-05-09T17:02:19.898Z,6.20
2018-05-09T17:05:23.151Z,3.90
2018-05-09T17:08:27.084Z,4.00
2018-05-09T17:11:30.440Z,6.40
2018-05-09T17:14:33.805Z,4.33
2018-05-09T17:17:36.983Z,7.43
2018-05-09T17:20:40.439Z,4.00
2018-05-09T17:23:43.836Z,4.47
2018-05-09T17:26:47.108Z,3.70
2018-05-09T17:29:50.502Z,3.60
2018-05-09T17:32:53.847Z,8.17
2018-05-09T17:35:57.681Z,5.00
2018-05-09T17:39:01.039Z,5.57
2018-05-09T17:42:05.075Z,5.83
2018-05-09T17:45:09.456Z,4.03
2018-05-09T17:48:13.755Z,5.87
2018-05-09T17:51:17.182Z,5.00
2018-05-09T17:54:20.382Z,5.10
2018-05-09T17:57:23.797Z,6.17
2018-05-09T18:00:27.647Z,5.83
2018-05-09T18:03:30.908Z,5.27
2018-05-09T18:06:34.177Z,5.77
2018-05-09T18:09:37.547Z,7.33
2018-05-09T18:12:41.044Z,8.37
2018-05-09T18:15:44.376Z,6.07
2018-05-09T18:18:47.806Z,6.27
2018-05-09T18:21:51.047Z,6.43
2018-05-09T18:24:54.375Z,9.53
2018-05-09T18:27:58.736Z,9.17
2018-05-09T18:31:02.112Z,12.43
2018-05-09T18:34:06.529Z,12.17
2018-05-09T18:37:09.983Z,13.20
2018-05-09T18:40:13.372Z,16.40
2018-05-09T18:43:17.709Z,9.90
2018-05-09T18:46:21.082Z,13.37
2018-05-09T18:49:24.352Z,12.77
2018-05-09T18:52:28.686Z,21.63
2018-05-09T18:55:32.120Z,14.17
2018-05-09T18:58:35.279Z,16.17
2018-05-09T19:01:38.588Z,23.23
2018-05-09T19:04:41.964Z,19.07
2018-05-09T19:07:45.362Z,15.83
2018-05-09T19:10:48.683Z,19.57
2018-05-09T19:13:51.958Z,12.07
2018-05-09T19:16:56.944Z,11.40
2018-05-09T19:20:00.364Z,10.43
2018-05-09T19:23:03.906Z,11.83
2018-05-09T19:26:10.095Z,11.67
2018-05-09T19:29:13.396Z,15.47
2018-05-09T19:32:16.969Z,11.93
2018-05-09T19:35:20.312Z,8.43
2018-05-09T19:38:23.735Z,8.17
2018-05-09T19:41:26.999Z,11.77
2018-05-09T19:44:31.689Z,7.73
2018-05-09T19:47:35.072Z,8.77
2018-05-09T19:50:38.393Z,10.37
2018-05-09T19:53:41.774Z,8.97
2018-05-09T19:56:46.132Z,5.30
2018-05-09T19:59:49.328Z,9.07
2018-05-09T20:02:53.293Z,8.93
2018-05-09T20:05:56.876Z,6.67
2018-05-09T20:09:01.385Z,12.30
2018-05-09T20:12:05.678Z,15.03
2018-05-09T20:15:09.280Z,6.73
2018-05-09T20:18:12.544Z,9.97
2018-05-09T20:21:15.922Z,9.43
2018-05-09T20:24:19.433Z,7.03
2018-05-09T20:27:22.932Z,14.23
2018-05-09T20:30:30.260Z,10.23
2018-05-09T20:33:33.557Z,6.97
2018-05-09T20:36:36.756Z,13.70
2018-05-09T20:39:40.164Z,11.43
2018-05-09T20:42:43.561Z,13.77
2018-05-09T20:45:46.945Z,9.33
2018-05-09T20:48:51.007Z,11.17
2018-05-09T20:51:54.399Z,11.37
2018-05-09T20:54:57.814Z,8.97
2018-05-09T20:58:01.163Z,8.60
2018-05-09T21:01:14.499Z,8.60
2018-05-09T21:04:17.900Z,9.83
2018-05-09T21:07:21.917Z,8.30
2018-05-09T21:10:25.294Z,6.07
2018-05-09T21:13:28.516Z,7.93
2018-05-09T21:16:31.961Z,7.93
2018-05-09T21:19:35.384Z,8.43
2018-05-09T21:22:38.734Z,4.93
2018-05-09T21:25:42.091Z,8.63
2018-05-09T21:28:45.411Z,6.57
2018-05-09T21:31:49.410Z,9.27
2018-05-09T21:34:52.828Z,10.07
2018-05-09T21:37:56.210Z,11.33
2018-05-09T21:41:02.000Z,8.00
2018-05-09T21:44:05.411Z,18.43
2018-05-09T21:47:08.930Z,10.23
2018-05-09T21:50:12.330Z,10.80
2018-05-09T21:53:15.664Z,11.10
2018-05-09T21:56:19.442Z,11.63
2018-05-09T21:59:22.581Z,6.80
2018-05-09T22:02:25.988Z,6.27
2018-05-09T22:05:29.369Z,9.20
2018-05-09T22:08:32.723Z,11.50
2018-05-09T22:11:36.123Z,8.30
2018-05-09T22:14:39.497Z,5.97
2018-05-09T22:17:42.871Z,7.20
2018-05-09T22:20:46.062Z,7.33
2018-05-09T22:23:50.348Z,8.17
2018-05-09T22:26:53.748Z,7.93
2018-05-09T22:29:57.074Z,7.87
2018-05-09T22:33:00.472Z,7.63
2018-05-09T22:36:03.784Z,9.37
2018-05-09T22:39:07.170Z,6.30
2018-05-09T22:42:10.511Z,6.33
2018-05-09T22:45:13.771Z,8.07
2018-05-09T22:48:16.972Z,6.57
2018-05-09T22:51:21.230Z,8.57
2018-05-09T22:54:24.524Z,7.83
2018-05-09T22:57:27.883Z,8.67
2018-05-09T23:00:31.124Z,7.80
2018-05-09T23:03:34.467Z,7.50
2018-05-09T23:06:38.743Z,6.10
2018-05-09T23:09:42.058Z,6.70
2018-05-09T23:12:46.341Z,7.03
2018-05-09T23:15:50.527Z,5.27
2018-05-09T23:18:53.822Z,6.33
2018-05-09T23:21:57.136Z,5.53
2018-05-09T23:25:00.380Z,9.33
2018-05-09T23:28:03.655Z,8.37
2018-05-09T23:31:07.027Z,5.10
2018-05-09T23:34:10.434Z,8.30
2018-05-09T23:37:14.728Z,6.03
2018-05-09T23:40:18.145Z,8.80
2018-05-09T23:43:22.796Z,10.27
2018-05-09T23:46:26.208Z,7.77
2018-05-09T23:49:29.531Z,7.77
2018-05-09T23:52:33.836Z,6.57
2018-05-09T23:55:37.277Z,6.10
2018-05-09T23:58:40.419Z,7.20
